< < Back
Terminal Aerodrome Forecast


Current Version              Previous Versions:   1  2  3  4  5  6  7  8  9  

Terminal Aerodrome Forecast

210
FTUS44 KMOB 211700
TAFPNS
TAF
KPNS 211735Z 2118/2218 07006KT P6SM OVC009
     FM212200 07005KT P6SM OVC015
     FM220300 07004KT 5SM BR OVC008
     FM220800 07005KT 5SM BR VCSH OVC004=

Latest METAR

112
SAUS70 KWBC 220000 RRC
MTRPNS
METAR KPNS 212353Z 03006KT 9SM OVC007 12/12 A3002 RMK AO2 SLP168
T01220117 10128 20122 55001


USA.gov is the U.S. government's official web portal to all federal, state and local government web resources and services.